Time;durP1;ratioP1;P1;durP2;ratioP2;P2;SDS_P1;SDS_P2;PMS_P1;PMS_P2;Temp;Humidity;BMP_temperature;BMP_pressure;BME280_temperature;BME280_humidity;BME280_pressure;Samples;Min_cycle;Max_cycle;Signal;HPM_P1;HPM_P2
2023/05/11 00:01:11;;;;;;;2.17;1.30;;;17.50;72.70;;;;;;5054533;28;20539;-76
2023/05/11 00:03:39;;;;;;;2.07;1.10;;;17.60;72.60;;;;;;5036801;28;20916;-76
2023/05/11 00:06:06;;;;;;;1.80;1.10;;;17.50;72.70;;;;;;5054446;28;20448;-76
2023/05/11 00:08:32;;;;;;;2.83;1.20;;;17.60;72.90;;;;;;5037617;28;20474;-76
2023/05/11 00:11:00;;;;;;;1.20;1.00;;;17.60;72.80;;;;;;5036605;28;20824;-74
2023/05/11 00:13:29;;;;;;;1.87;1.27;;;17.50;72.70;;;;;;5053465;28;20453;-77
2023/05/11 00:15:56;;;;;;;1.47;1.30;;;17.60;73.00;;;;;;5054041;28;20706;-76
2023/05/11 00:18:23;;;;;;;1.30;1.20;;;17.60;73.00;;;;;;5019398;28;20441;-78
2023/05/11 00:20:49;;;;;;;1.33;1.00;;;17.50;72.70;;;;;;5053856;28;20455;-77
2023/05/11 00:23:16;;;;;;;3.33;1.30;;;17.50;73.00;;;;;;5053981;28;20462;-76
2023/05/11 00:25:43;;;;;;;1.07;0.97;;;17.50;73.20;;;;;;5053919;28;20928;-77
2023/05/11 00:28:10;;;;;;;2.43;1.30;;;17.40;73.20;;;;;;5053902;28;20979;-76
2023/05/11 00:30:40;;;;;;;1.47;1.23;;;17.40;73.30;;;;;;5053624;28;20938;-76
2023/05/11 00:33:07;;;;;;;2.23;1.40;;;17.40;73.40;;;;;;5036135;28;21018;-76
2023/05/11 00:35:34;;;;;;;2.20;1.47;;;17.40;73.50;;;;;;5053439;28;20474;-76
2023/05/11 00:38:01;;;;;;;1.27;1.10;;;17.40;73.50;;;;;;5053734;28;20453;-76
2023/05/11 00:40:28;;;;;;;1.37;1.20;;;17.40;73.50;;;;;;5053440;28;20457;-75
2023/05/11 00:42:55;;;;;;;1.90;1.30;;;17.40;73.50;;;;;;5053918;28;20448;-75
2023/05/11 00:45:22;;;;;;;1.00;1.00;;;17.40;73.70;;;;;;5053600;28;20482;-77
2023/05/11 00:47:50;;;;;;;1.43;1.33;;;17.30;73.60;;;;;;5053696;28;20456;-76
2023/05/11 00:50:18;;;;;;;1.20;1.00;;;17.30;73.70;;;;;;5052814;28;21132;-77
2023/05/11 00:52:45;;;;;;;3.13;2.00;;;17.30;73.90;;;;;;5053192;28;20464;-77
2023/05/11 00:55:14;;;;;;;1.77;1.60;;;17.30;73.90;;;;;;5053221;28;21022;-76
2023/05/11 00:57:41;;;;;;;1.57;1.40;;;17.20;74.10;;;;;;5035465;28;20504;-76
2023/05/11 01:00:09;;;;;;;2.47;1.10;;;17.20;74.30;;;;;;5034969;28;20453;-77
2023/05/11 01:02:36;;;;;;;2.13;1.93;;;17.10;75.20;;;;;;5053075;28;20563;-76
2023/05/11 01:05:04;;;;;;;3.20;2.40;;;17.10;74.40;;;;;;5053162;28;20476;-76
2023/05/11 01:07:36;;;;;;;4.40;1.50;;;17.10;74.70;;;;;;5053189;28;20443;-77
2023/05/11 01:10:11;;;;;;;2.73;1.37;;;17.00;74.80;;;;;;5053197;28;20928;-77
2023/05/11 01:12:46;;;;;;;1.90;1.60;;;17.00;74.90;;;;;;5053246;28;20443;-76
2023/05/11 01:15:23;;;;;;;1.20;1.10;;;17.00;74.80;;;;;;5053151;28;20510;-75
2023/05/11 01:17:55;;;;;;;1.67;1.30;;;17.00;75.60;;;;;;5052978;28;20436;-77
2023/05/11 01:20:26;;;;;;;2.83;1.20;;;17.00;74.80;;;;;;5052879;28;20719;-77
2023/05/11 01:23:10;;;;;;;3.00;1.50;;;17.00;74.90;;;;;;5053230;28;20452;-76
2023/05/11 01:25:53;;;;;;;1.17;1.07;;;17.00;75.10;;;;;;5052332;28;20480;-76
2023/05/11 01:28:52;;;;;;;1.20;1.10;;;17.00;75.10;;;;;;5052847;28;20494;-75
2023/05/11 01:31:21;;;;;;;1.60;1.20;;;17.00;75.40;;;;;;5029064;28;20912;-76
2023/05/11 01:33:55;;;;;;;2.63;1.20;;;17.00;75.10;;;;;;5052291;28;20455;-75
2023/05/11 01:36:27;;;;;;;4.67;1.10;;;17.00;75.10;;;;;;5052803;28;20453;-76
2023/05/11 01:38:58;;;;;;;1.30;1.10;;;17.00;75.00;;;;;;5010328;28;20456;-75
2023/05/11 01:41:28;;;;;;;1.10;1.00;;;16.90;74.90;;;;;;5052546;28;20486;-76
2023/05/11 01:43:58;;;;;;;1.60;1.10;;;16.90;75.20;;;;;;5035351;28;20539;-76
2023/05/11 01:46:30;;;;;;;2.63;0.87;;;16.80;75.40;;;;;;5052605;28;20443;-77
2023/05/11 01:48:59;;;;;;;1.30;1.00;;;16.70;75.60;;;;;;5052602;28;20452;-76
2023/05/11 01:51:30;;;;;;;2.20;1.33;;;16.80;75.80;;;;;;5047634;28;20453;-76
2023/05/11 01:53:59;;;;;;;2.63;1.57;;;16.80;75.70;;;;;;5052271;28;20451;-75
2023/05/11 01:56:27;;;;;;;1.30;1.20;;;16.80;75.60;;;;;;5016356;28;20455;-76
2023/05/11 01:58:56;;;;;;;6.33;1.83;;;16.80;75.60;;;;;;5051562;28;20486;-77
2023/05/11 02:01:24;;;;;;;1.83;1.10;;;16.80;75.60;;;;;;5051908;28;20472;-77
2023/05/11 02:03:53;;;;;;;2.53;1.40;;;16.80;75.70;;;;;;5051924;28;20459;-76
2023/05/11 02:06:22;;;;;;;1.50;1.40;;;16.90;75.70;;;;;;5051826;28;21003;-76
2023/05/11 02:08:50;;;;;;;1.30;1.20;;;16.90;75.70;;;;;;5051749;28;20508;-76
2023/05/11 02:11:19;;;;;;;1.50;1.40;;;16.90;76.40;;;;;;5051612;28;21198;-76
2023/05/11 02:13:47;;;;;;;1.70;1.60;;;16.80;75.50;;;;;;5034688;28;20460;-76
2023/05/11 02:16:16;;;;;;;2.80;1.50;;;16.80;75.60;;;;;;5052304;28;20480;-76
2023/05/11 02:18:44;;;;;;;3.00;1.50;;;16.80;75.70;;;;;;5036604;28;20448;-77
2023/05/11 02:21:15;;;;;;;2.23;1.20;;;16.80;75.70;;;;;;5001957;28;20452;-75
2023/05/11 02:23:43;;;;;;;1.60;1.30;;;16.80;75.90;;;;;;5052501;28;20455;-75
2023/05/11 02:26:12;;;;;;;2.50;1.23;;;16.80;75.80;;;;;;5052352;28;20575;-75
2023/05/11 02:28:39;;;;;;;1.43;1.33;;;16.70;76.00;;;;;;5052441;28;20555;-77
2023/05/11 02:31:11;;;;;;;2.33;1.80;;;16.70;76.10;;;;;;5051598;28;20449;-76
2023/05/11 02:33:43;;;;;;;2.07;1.87;;;16.60;76.40;;;;;;5052137;28;20456;-77
2023/05/11 02:36:14;;;;;;;1.90;1.70;;;16.50;76.50;;;;;;5052997;28;20444;-78
2023/05/11 02:38:43;;;;;;;1.97;1.60;;;16.50;76.80;;;;;;5056000;28;20462;-76
2023/05/11 02:41:15;;;;;;;7.73;5.47;;;16.40;77.00;;;;;;5056047;28;20543;-77
2023/05/11 02:43:46;;;;;;;7.40;4.50;;;16.40;77.00;;;;;;5056170;28;20967;-76
2023/05/11 02:46:16;;;;;;;2.10;1.80;;;16.40;77.00;;;;;;5055751;28;20514;-77
2023/05/11 02:48:47;;;;;;;1.37;1.27;;;16.50;77.00;;;;;;5036355;28;20457;-77
2023/05/11 02:51:19;;;;;;;1.70;1.30;;;16.50;76.90;;;;;;5051185;28;20559;-76
2023/05/11 02:53:47;;;;;;;1.50;1.30;;;16.60;76.80;;;;;;5055387;28;20515;-77
2023/05/11 02:56:14;;;;;;;0.90;0.87;;;16.60;76.70;;;;;;5054600;28;20459;-77
2023/05/11 02:58:41;;;;;;;1.50;1.10;;;16.60;76.70;;;;;;5053156;28;20566;-77
2023/05/11 03:01:08;;;;;;;1.93;1.20;;;16.60;76.90;;;;;;5055141;28;20459;-77
2023/05/11 03:03:35;;;;;;;2.43;1.20;;;16.60;76.80;;;;;;5055632;28;20472;-77
2023/05/11 03:06:02;;;;;;;1.37;1.20;;;16.60;76.90;;;;;;5055581;28;20487;-76
2023/05/11 03:08:30;;;;;;;2.10;1.40;;;16.60;76.90;;;;;;5037614;28;20559;-76
2023/05/11 03:10:58;;;;;;;1.33;1.23;;;16.60;76.90;;;;;;5054918;28;20982;-75
2023/05/11 03:13:27;;;;;;;1.20;1.00;;;16.60;76.80;;;;;;5020191;28;20450;-77
2023/05/11 03:15:55;;;;;;;1.23;1.13;;;16.60;76.80;;;;;;5055259;28;20527;-76
2023/05/11 03:18:22;;;;;;;2.30;1.33;;;16.60;76.80;;;;;;5055365;28;20448;-75
2023/05/11 03:20:50;;;;;;;1.57;1.17;;;16.60;76.80;;;;;;5055081;28;20456;-77
2023/05/11 03:23:18;;;;;;;1.40;1.30;;;16.60;76.90;;;;;;5055202;28;20884;-75
2023/05/11 03:25:47;;;;;;;7.53;1.63;;;16.60;76.90;;;;;;5054677;28;20503;-76
2023/05/11 03:28:15;;;;;;;1.93;1.47;;;16.50;76.90;;;;;;5054506;28;20559;-77
2023/05/11 03:30:44;;;;;;;2.47;1.20;;;16.60;77.00;;;;;;5054791;28;20886;-75
2023/05/11 03:33:11;;;;;;;1.77;1.37;;;16.60;76.90;;;;;;5037483;28;20558;-77
2023/05/11 03:35:41;;;;;;;1.40;1.30;;;16.60;76.90;;;;;;5055554;28;20805;-78
2023/05/11 03:38:09;;;;;;;1.40;1.30;;;16.60;76.90;;;;;;5055119;28;20456;-78
2023/05/11 03:40:38;;;;;;;2.23;1.17;;;16.60;76.90;;;;;;5054589;28;20464;-77
2023/05/11 03:43:08;;;;;;;2.60;1.40;;;16.50;76.90;;;;;;5054503;28;20462;-76
2023/05/11 03:45:36;;;;;;;1.60;1.50;;;16.50;77.20;;;;;;5041753;28;20480;-77
2023/05/11 03:48:04;;;;;;;1.37;1.20;;;16.50;77.20;;;;;;5054129;28;20819;-76
2023/05/11 03:50:32;;;;;;;1.57;1.37;;;16.50;77.30;;;;;;5054295;28;20441;-76
2023/05/11 03:53:00;;;;;;;1.47;1.37;;;16.50;77.40;;;;;;5053944;28;20581;-78
2023/05/11 03:55:27;;;;;;;1.50;1.40;;;16.50;77.30;;;;;;5054380;28;20448;-78
2023/05/11 03:57:54;;;;;;;3.00;1.60;;;16.50;77.40;;;;;;5053856;28;20512;-76
2023/05/11 04:00:22;;;;;;;1.57;1.47;;;16.50;78.10;;;;;;5043753;28;20575;-78
2023/05/11 04:02:49;;;;;;;2.93;1.57;;;16.50;77.40;;;;;;5036419;28;20448;-77
2023/05/11 04:05:17;;;;;;;2.57;1.60;;;16.50;77.50;;;;;;5054720;28;20480;-77
2023/05/11 04:07:44;;;;;;;2.77;1.53;;;16.40;77.30;;;;;;5054515;28;20483;-77
2023/05/11 04:10:11;;;;;;;2.37;1.50;;;16.40;77.40;;;;;;5036512;28;21920;-77
2023/05/11 04:12:38;;;;;;;1.60;1.50;;;16.40;77.50;;;;;;5054204;28;20448;-76
2023/05/11 04:15:05;;;;;;;2.00;1.40;;;16.40;77.50;;;;;;5053917;28;20452;-76
2023/05/11 04:17:34;;;;;;;1.60;1.50;;;16.40;77.50;;;;;;5036492;28;20451;-76
2023/05/11 04:20:00;;;;;;;2.50;1.80;;;16.40;77.50;;;;;;5053934;28;20481;-76
2023/05/11 04:22:27;;;;;;;2.70;1.60;;;16.40;77.40;;;;;;5054093;28;20452;-77
2023/05/11 04:24:54;;;;;;;2.47;1.63;;;16.40;77.50;;;;;;5054454;28;20489;-75
2023/05/11 04:27:21;;;;;;;2.33;1.63;;;16.40;77.60;;;;;;5053588;28;20466;-76
2023/05/11 04:29:48;;;;;;;2.17;1.60;;;16.40;77.60;;;;;;5053805;28;20951;-77
2023/05/11 04:32:15;;;;;;;1.60;1.50;;;16.50;77.60;;;;;;5053697;28;20445;-76
2023/05/11 04:34:43;;;;;;;1.73;1.63;;;16.50;77.80;;;;;;5053544;28;20986;-77
2023/05/11 04:37:10;;;;;;;3.17;1.40;;;16.50;77.80;;;;;;5051754;28;20455;-73
2023/05/11 04:39:37;;;;;;;1.77;1.60;;;16.40;77.70;;;;;;5053969;28;20452;-75
2023/05/11 04:42:04;;;;;;;1.57;1.43;;;16.50;77.70;;;;;;5053997;28;20544;-77
2023/05/11 04:44:31;;;;;;;1.40;1.30;;;16.40;77.70;;;;;;5052241;28;20936;-77
2023/05/11 04:46:58;;;;;;;1.60;1.50;;;16.50;77.90;;;;;;5053393;28;20927;-77
2023/05/11 04:49:25;;;;;;;2.63;1.70;;;16.50;77.70;;;;;;5053504;28;20460;-77
2023/05/11 04:51:53;;;;;;;1.93;1.70;;;16.50;77.60;;;;;;5053482;28;20792;-76
2023/05/11 04:54:20;;;;;;;2.37;1.67;;;16.50;78.50;;;;;;5052777;28;20571;-76
2023/05/11 04:56:47;;;;;;;1.80;1.70;;;16.50;77.80;;;;;;5052963;28;20463;-76
2023/05/11 04:59:13;;;;;;;2.17;1.90;;;16.40;77.60;;;;;;5052997;28;20483;-76
2023/05/11 05:01:40;;;;;;;1.73;1.63;;;16.40;77.90;;;;;;5047611;28;20498;-77
2023/05/11 05:04:07;;;;;;;4.73;2.20;;;16.40;78.00;;;;;;5053688;28;20482;-77
2023/05/11 05:06:34;;;;;;;1.80;1.70;;;16.40;77.80;;;;;;5053146;28;20907;-75
2023/05/11 05:09:02;;;;;;;4.90;2.20;;;16.40;77.90;;;;;;5052981;28;20455;-77
2023/05/11 05:11:29;;;;;;;2.53;2.00;;;16.50;78.00;;;;;;5053145;28;20460;-76
2023/05/11 05:13:56;;;;;;;1.97;1.87;;;16.50;77.80;;;;;;5053261;28;20832;-76
2023/05/11 05:16:23;;;;;;;2.00;1.80;;;16.50;77.90;;;;;;5053129;28;20452;-78
2023/05/11 05:18:50;;;;;;;2.10;1.90;;;16.50;77.60;;;;;;5053133;28;20463;-77
2023/05/11 05:21:16;;;;;;;2.00;1.80;;;16.50;77.60;;;;;;5052751;28;20480;-76
2023/05/11 05:23:43;;;;;;;1.93;1.83;;;16.50;77.60;;;;;;5060150;28;22092;-78
2023/05/11 05:26:12;;;;;;;5.57;2.40;;;16.40;77.50;;;;;;5042714;28;20484;-79
2023/05/11 05:28:38;;;;;;;3.43;2.40;;;16.40;77.70;;;;;;5052519;28;20518;-77
2023/05/11 05:31:05;;;;;;;2.90;2.43;;;16.40;77.60;;;;;;5034908;28;20456;-75
2023/05/11 05:33:32;;;;;;;2.50;2.30;;;16.40;77.60;;;;;;5052055;28;20531;-75
2023/05/11 05:35:59;;;;;;;3.17;2.33;;;16.40;77.70;;;;;;5051840;28;20535;-75
2023/05/11 05:38:26;;;;;;;2.40;2.20;;;16.30;77.70;;;;;;5052985;28;20821;-75
2023/05/11 05:40:53;;;;;;;3.73;2.37;;;16.20;78.00;;;;;;5051139;28;20476;-74
2023/05/11 05:43:21;;;;;;;2.83;2.60;;;16.20;78.20;;;;;;5051566;28;20547;-74
2023/05/11 05:45:48;;;;;;;2.57;2.00;;;16.20;78.00;;;;;;5051667;28;20488;-75
2023/05/11 05:48:15;;;;;;;2.30;2.10;;;16.30;78.10;;;;;;5050555;28;20475;-75
2023/05/11 05:50:42;;;;;;;2.33;2.10;;;16.30;78.00;;;;;;5050841;28;21190;-74
2023/05/11 05:53:08;;;;;;;3.50;2.30;;;16.30;78.10;;;;;;5050551;28;20458;-75
2023/05/11 05:55:35;;;;;;;2.50;2.30;;;16.30;78.00;;;;;;5051283;28;20548;-74
2023/05/11 05:58:02;;;;;;;2.57;2.37;;;16.30;77.90;;;;;;5051330;28;20563;-76
2023/05/11 06:00:30;;;;;;;3.03;2.20;;;16.30;77.90;;;;;;5050860;28;20552;-74
2023/05/11 06:02:57;;;;;;;2.60;2.40;;;16.30;77.90;;;;;;5051245;28;20456;-75
2023/05/11 06:05:24;;;;;;;2.77;2.57;;;16.30;77.70;;;;;;5051152;28;20451;-75
2023/05/11 06:07:51;;;;;;;3.47;2.37;;;16.40;77.60;;;;;;5050557;28;20516;-76
2023/05/11 06:10:18;;;;;;;2.90;2.03;;;16.40;77.60;;;;;;5050707;28;20456;-75
2023/05/11 06:12:45;;;;;;;2.50;2.30;;;16.40;77.70;;;;;;5036762;28;20444;-74
2023/05/11 06:15:12;;;;;;;2.80;2.10;;;16.50;77.70;;;;;;5055316;28;20471;-75
2023/05/11 06:17:41;;;;;;;3.73;2.47;;;16.50;77.30;;;;;;5054143;28;20447;-75
2023/05/11 06:20:09;;;;;;;2.77;2.40;;;16.60;77.50;;;;;;5054082;28;20452;-75
2023/05/11 06:22:36;;;;;;;2.37;2.17;;;16.50;77.30;;;;;;5054859;28;20862;-75
2023/05/11 06:25:03;;;;;;;2.97;2.13;;;16.50;77.40;;;;;;5054763;28;20470;-75
2023/05/11 06:27:30;;;;;;;2.70;2.37;;;16.40;77.50;;;;;;5053332;28;20531;-75
2023/05/11 06:29:57;;;;;;;2.60;2.10;;;16.40;77.70;;;;;;5017808;28;20519;-75
2023/05/11 06:32:24;;;;;;;2.40;2.20;;;16.50;77.60;;;;;;5053400;28;20462;-74
2023/05/11 06:34:52;;;;;;;2.80;2.13;;;16.50;77.20;;;;;;5052998;28;20482;-78
2023/05/11 06:37:19;;;;;;;2.10;2.00;;;16.50;76.90;;;;;;5059556;28;20448;-75
2023/05/11 06:39:47;;;;;;;2.80;2.40;;;16.50;77.00;;;;;;5041147;28;20452;-75
2023/05/11 06:42:14;;;;;;;2.97;2.60;;;16.60;77.00;;;;;;5008897;28;20483;-75
2023/05/11 06:44:41;;;;;;;2.47;2.27;;;16.60;76.70;;;;;;5056359;28;20535;-75
2023/05/11 06:47:08;;;;;;;2.70;2.07;;;16.70;76.80;;;;;;5054394;28;20488;-76
2023/05/11 06:49:35;;;;;;;2.93;2.30;;;16.70;77.20;;;;;;5053343;28;20932;-75
2023/05/11 06:52:03;;;;;;;2.47;2.10;;;16.70;76.30;;;;;;5053104;28;20495;-75
2023/05/11 06:54:30;;;;;;;2.90;2.30;;;16.80;76.20;;;;;;5053392;28;20463;-75
2023/05/11 06:56:57;;;;;;;3.53;2.57;;;16.80;76.30;;;;;;5054190;28;20460;-76
2023/05/11 06:59:24;;;;;;;4.03;2.93;;;16.90;76.20;;;;;;5053410;28;20468;-76
2023/05/11 07:01:51;;;;;;;3.03;2.40;;;16.80;75.70;;;;;;5052396;28;20475;-74
2023/05/11 07:04:18;;;;;;;2.90;2.60;;;16.80;75.80;;;;;;5053741;28;20454;-76
2023/05/11 07:06:45;;;;;;;2.73;2.23;;;16.80;75.90;;;;;;5052849;28;20477;-76
2023/05/11 07:09:13;;;;;;;3.20;2.90;;;16.90;76.00;;;;;;5052856;28;20839;-75
2023/05/11 07:11:40;;;;;;;4.20;2.60;;;16.90;75.90;;;;;;5053255;28;20563;-73
2023/05/11 07:14:07;;;;;;;3.10;2.80;;;16.90;75.80;;;;;;5053285;28;20954;-75
2023/05/11 07:16:36;;;;;;;4.20;2.40;;;17.00;75.70;;;;;;5053160;28;20452;-75
2023/05/11 07:19:03;;;;;;;2.63;2.40;;;17.00;75.40;;;;;;5053408;28;20796;-75
2023/05/11 07:21:31;;;;;;;2.70;2.50;;;16.90;75.30;;;;;;5052801;28;20480;-76
2023/05/11 07:23:58;;;;;;;2.90;2.40;;;16.90;75.40;;;;;;5053653;28;20493;-76
2023/05/11 07:26:26;;;;;;;3.20;2.50;;;17.00;74.90;;;;;;5018051;28;20490;-76
2023/05/11 07:28:53;;;;;;;3.40;2.53;;;16.90;74.80;;;;;;4999309;28;20472;-76
2023/05/11 07:31:20;;;;;;;2.60;2.40;;;16.90;75.40;;;;;;5038827;28;20547;-78
2023/05/11 07:33:47;;;;;;;3.50;2.50;;;16.90;74.90;;;;;;5052942;28;20450;-77
2023/05/11 07:36:14;;;;;;;3.77;2.53;;;16.90;74.70;;;;;;5053046;28;20483;-77
2023/05/11 07:38:41;;;;;;;2.77;2.57;;;17.00;75.10;;;;;;5064135;28;20531;-77
2023/05/11 07:41:08;;;;;;;3.10;2.80;;;17.00;75.20;;;;;;5073338;28;20529;-76
2023/05/11 07:43:37;;;;;;;3.50;2.97;;;17.00;74.90;;;;;;5038983;28;20452;-76
2023/05/11 07:46:03;;;;;;;3.20;2.57;;;17.00;74.80;;;;;;5053082;28;20535;-75
2023/05/11 07:48:30;;;;;;;3.20;2.70;;;17.10;74.90;;;;;;5052629;28;20699;-77
2023/05/11 07:51:00;;;;;;;3.43;3.13;;;17.00;74.20;;;;;;5052512;28;20460;-76
2023/05/11 07:53:27;;;;;;;3.23;3.03;;;16.90;74.70;;;;;;5052335;28;20448;-76
2023/05/11 07:55:54;;;;;;;3.50;3.07;;;16.90;74.70;;;;;;5052697;28;20563;-75
2023/05/11 07:58:21;;;;;;;3.30;3.00;;;16.70;74.40;;;;;;5033891;28;20531;-76
2023/05/11 08:00:49;;;;;;;2.70;2.50;;;16.70;75.10;;;;;;5052373;28;20483;-77
2023/05/11 08:03:16;;;;;;;6.30;3.07;;;16.90;75.30;;;;;;5051777;28;20543;-76
2023/05/11 08:05:43;;;;;;;4.53;3.57;;;17.10;75.30;;;;;;5052743;28;20448;-77
2023/05/11 08:08:09;;;;;;;6.27;3.20;;;17.00;74.30;;;;;;5052050;28;20494;-75
2023/05/11 08:10:36;;;;;;;3.80;3.50;;;16.90;74.50;;;;;;5052089;28;20803;-76
2023/05/11 08:13:03;;;;;;;6.53;3.40;;;16.90;74.80;;;;;;5052177;28;20483;-76
2023/05/11 08:15:31;;;;;;;3.63;3.33;;;16.80;74.70;;;;;;5016228;28;20472;-75
2023/05/11 08:17:59;;;;;;;4.10;3.67;;;16.80;75.20;;;;;;5052391;28;20456;-75
2023/05/11 08:20:26;;;;;;;5.00;3.67;;;16.80;75.20;;;;;;5051898;28;20476;-76
2023/05/11 08:22:53;;;;;;;3.87;3.57;;;16.80;75.30;;;;;;5016526;28;20452;-76
2023/05/11 08:25:19;;;;;;;3.83;3.43;;;16.80;75.00;;;;;;5051665;28;20967;-76
2023/05/11 08:27:46;;;;;;;3.50;3.20;;;16.70;75.20;;;;;;5051080;28;20567;-75
2023/05/11 08:30:14;;;;;;;6.50;4.67;;;16.80;75.10;;;;;;5052376;28;20535;-76
2023/05/11 08:32:41;;;;;;;4.30;3.53;;;16.80;74.90;;;;;;5051938;28;20468;-74
2023/05/11 08:35:10;;;;;;;4.07;3.50;;;16.80;74.50;;;;;;5051042;28;20448;-75
2023/05/11 08:37:37;;;;;;;4.90;3.47;;;16.90;75.00;;;;;;5018878;28;20440;-75
2023/05/11 08:40:05;;;;;;;3.70;3.13;;;17.00;74.80;;;;;;5035942;28;21175;-75
2023/05/11 08:42:34;;;;;;;4.53;3.47;;;17.10;74.60;;;;;;5055934;28;20484;-74
2023/05/11 08:45:02;;;;;;;3.80;3.20;;;17.20;74.40;;;;;;5051639;28;20522;-74
2023/05/11 08:47:30;;;;;;;4.03;3.30;;;17.30;73.90;;;;;;5050915;28;20519;-76
2023/05/11 08:49:57;;;;;;;3.50;3.20;;;17.20;73.90;;;;;;5051373;28;20447;-77
2023/05/11 08:52:26;;;;;;;4.03;3.70;;;17.40;73.90;;;;;;5052139;28;20448;-76
2023/05/11 08:54:53;;;;;;;3.37;3.07;;;17.50;73.10;;;;;;5051705;28;20452;-77
2023/05/11 08:57:21;;;;;;;5.53;2.87;;;17.50;73.00;;;;;;5051646;28;20452;-77
2023/05/11 08:59:49;;;;;;;3.83;2.83;;;17.60;73.20;;;;;;5051521;28;20566;-75
2023/05/11 09:02:18;;;;;;;4.77;3.73;;;17.60;72.60;;;;;;5032846;28;20550;-76
2023/05/11 09:04:45;;;;;;;4.30;3.70;;;17.60;73.10;;;;;;5063241;28;20451;-77
2023/05/11 09:07:15;;;;;;;4.03;3.20;;;17.70;72.70;;;;;;5053905;28;20542;-75
2023/05/11 09:09:45;;;;;;;3.70;3.40;;;17.70;72.60;;;;;;5052520;28;20460;-76
2023/05/11 09:12:12;;;;;;;4.17;3.43;;;17.70;72.80;;;;;;5051896;28;20452;-76
2023/05/11 09:14:39;;;;;;;4.07;3.43;;;17.70;72.20;;;;;;5054227;28;20452;-73
2023/05/11 09:17:06;;;;;;;4.07;3.40;;;17.70;72.30;;;;;;5052164;28;20444;-75
2023/05/11 09:19:33;;;;;;;4.70;3.13;;;17.80;72.00;;;;;;5051942;28;20452;-76
2023/05/11 09:22:00;;;;;;;3.70;3.37;;;17.80;71.90;;;;;;5051928;28;20536;-75
2023/05/11 09:24:27;;;;;;;3.50;2.90;;;17.90;71.80;;;;;;5051964;28;20456;-78
2023/05/11 09:27:08;;;;;;;3.70;3.07;;;17.90;71.50;;;;;;5051647;28;20972;-75
2023/05/11 09:29:35;;;;;;;3.13;2.80;;;18.00;71.30;;;;;;5051693;28;20464;-76
2023/05/11 09:32:02;;;;;;;4.20;2.90;;;18.00;71.20;;;;;;5050655;28;20478;-75
2023/05/11 09:34:29;;;;;;;4.63;2.67;;;18.00;71.10;;;;;;5052322;28;20559;-76
2023/05/11 09:36:57;;;;;;;3.20;2.90;;;18.20;71.70;;;;;;5051472;28;21011;-74
2023/05/11 09:39:30;;;;;;;4.40;2.90;;;18.30;71.40;;;;;;5034428;28;20466;-75
2023/05/11 09:42:18;;;;;;;3.00;2.70;;;18.40;71.00;;;;;;5051189;28;20459;-74
2023/05/11 09:44:46;;;;;;;2.40;2.20;;;18.50;69.80;;;;;;5051558;28;20462;-76
2023/05/11 09:47:15;;;;;;;2.90;2.60;;;18.60;70.90;;;;;;5054440;28;20576;-75
2023/05/11 09:49:43;;;;;;;2.43;2.23;;;18.70;70.30;;;;;;5055521;28;20464;-74
2023/05/11 09:52:11;;;;;;;2.97;2.70;;;18.70;70.60;;;;;;5054902;28;20249;-75
2023/05/11 09:54:45;;;;;;;3.00;2.70;;;18.80;70.00;;;;;;5055190;28;20476;-76
2023/05/11 09:57:25;;;;;;;3.30;2.73;;;18.80;69.00;;;;;;5068272;28;20196;-75
2023/05/11 09:59:52;;;;;;;3.03;2.63;;;18.80;69.50;;;;;;5062236;28;20475;-74
2023/05/11 10:02:21;;;;;;;3.27;3.07;;;18.80;70.00;;;;;;5054275;28;20452;-76
2023/05/11 10:04:48;;;;;;;3.30;3.00;;;18.90;69.30;;;;;;5054165;28;21007;-74
2023/05/11 10:07:29;;;;;;;5.23;2.80;;;18.80;68.20;;;;;;5054989;28;20483;-76
2023/05/11 10:09:57;;;;;;;3.37;2.93;;;18.80;68.00;;;;;;5038178;28;20452;-75
2023/05/11 10:12:26;;;;;;;2.83;2.60;;;18.70;68.50;;;;;;5055491;28;20925;-75
2023/05/11 10:14:55;;;;;;;4.50;3.10;;;18.70;69.10;;;;;;5055003;28;20575;-75
2023/05/11 10:17:22;;;;;;;2.83;2.63;;;18.80;69.00;;;;;;5055320;28;20480;-74
2023/05/11 10:19:49;;;;;;;3.73;2.60;;;18.90;68.50;;;;;;5055447;28;20456;-75
2023/05/11 10:22:17;;;;;;;4.13;2.87;;;18.90;69.10;;;;;;5055345;28;20472;-74
2023/05/11 10:24:44;;;;;;;3.43;3.13;;;19.00;69.40;;;;;;5055801;28;20229;-74
2023/05/11 10:27:12;;;;;;;6.00;3.60;;;19.10;68.90;;;;;;5054729;28;20480;-74
2023/05/11 10:29:42;;;;;;;3.30;3.00;;;19.00;67.80;;;;;;5055127;28;20205;-76
2023/05/11 10:32:10;;;;;;;3.47;3.00;;;18.90;67.90;;;;;;5054816;28;21135;-77
2023/05/11 10:34:38;;;;;;;5.43;3.90;;;19.00;68.20;;;;;;5055696;28;20680;-75
2023/05/11 10:37:06;;;;;;;3.40;3.10;;;19.00;67.70;;;;;;5055255;28;20460;-76
2023/05/11 10:39:36;;;;;;;3.10;2.80;;;18.80;67.60;;;;;;5055376;28;20474;-77
2023/05/11 10:42:20;;;;;;;3.37;3.07;;;18.70;68.00;;;;;;5054698;28;20206;-77
2023/05/11 10:45:30;;;;;;;3.30;3.00;;;18.90;68.90;;;;;;5055120;28;20476;-77
2023/05/11 10:48:30;;;;;;;3.00;2.50;;;19.10;67.90;;;;;;5044618;28;20491;-77
2023/05/11 10:51:33;;;;;;;3.07;2.77;;;19.10;67.50;;;;;;5050368;28;20312;-76
2023/05/11 10:54:26;;;;;;;3.50;3.13;;;19.20;68.40;;;;;;5048843;28;20700;-77
2023/05/11 10:57:13;;;;;;;3.53;2.93;;;19.10;66.90;;;;;;5052916;28;20260;-76
2023/05/11 11:00:13;;;;;;;3.70;3.20;;;19.20;67.40;;;;;;5051437;28;20452;-75
2023/05/11 11:02:41;;;;;;;3.00;2.77;;;19.20;67.60;;;;;;5041508;28;20274;-73
2023/05/11 11:05:12;;;;;;;3.40;3.10;;;19.30;67.50;;;;;;5054304;28;20495;-73
2023/05/11 11:08:03;;;;;;;4.83;2.83;;;19.30;66.70;;;;;;5036904;28;20229;-76
2023/05/11 11:10:32;;;;;;;3.60;3.17;;;19.40;67.10;;;;;;5028338;28;20464;-75
2023/05/11 11:13:03;;;;;;;2.87;2.60;;;19.40;67.00;;;;;;5053562;28;20206;-75
2023/05/11 11:16:03;;;;;;;3.47;3.17;;;19.50;67.00;;;;;;5053942;28;20455;-74
2023/05/11 11:18:33;;;;;;;2.70;2.50;;;19.60;68.30;;;;;;5054369;28;20217;-75
2023/05/11 11:21:00;;;;;;;2.57;2.37;;;19.70;68.20;;;;;;5053686;28;20571;-75
2023/05/11 11:23:44;;;;;;;2.93;2.70;;;19.90;67.60;;;;;;5054474;28;20301;-73
2023/05/11 11:26:14;;;;;;;3.33;2.73;;;20.00;66.40;;;;;;5053474;28;20237;-75
2023/05/11 11:29:09;;;;;;;3.23;2.90;;;20.10;66.90;;;;;;5054352;28;20248;-75
2023/05/11 11:31:37;;;;;;;3.13;2.67;;;20.20;67.80;;;;;;5053440;28;20214;-74
2023/05/11 11:34:36;;;;;;;3.67;2.80;;;20.20;66.90;;;;;;5053797;28;20209;-76
2023/05/11 11:37:04;;;;;;;2.80;2.60;;;20.30;66.30;;;;;;5034081;28;20206;-75
2023/05/11 11:39:48;;;;;;;3.23;2.93;;;20.30;66.30;;;;;;5035197;28;20573;-76
2023/05/11 11:42:17;;;;;;;2.93;2.73;;;20.40;65.80;;;;;;5033398;28;20191;-75
2023/05/11 11:44:45;;;;;;;3.73;2.77;;;20.50;65.50;;;;;;5036147;28;20236;-74
2023/05/11 11:47:13;;;;;;;2.83;2.60;;;20.50;65.50;;;;;;5053613;28;20209;-74
2023/05/11 11:49:44;;;;;;;3.33;3.03;;;20.60;65.80;;;;;;5052840;28;20293;-76
2023/05/11 11:52:12;;;;;;;3.30;2.80;;;20.60;65.90;;;;;;5047189;28;20229;-76
2023/05/11 11:54:40;;;;;;;3.10;2.80;;;20.70;65.80;;;;;;5052948;28;20217;-69
2023/05/11 11:57:37;;;;;;;3.57;2.97;;;20.70;65.60;;;;;;5065314;28;20311;-72
2023/05/11 12:00:09;;;;;;;4.10;2.83;;;20.80;64.00;;;;;;5053151;28;20198;-72
2023/05/11 12:02:40;;;;;;;3.73;3.03;;;20.80;65.00;;;;;;5053093;28;20206;-76
2023/05/11 12:05:12;;;;;;;2.90;2.67;;;20.90;63.60;;;;;;5053632;28;20686;-74
2023/05/11 12:07:42;;;;;;;2.83;2.60;;;20.90;63.90;;;;;;5053982;28;20221;-74
2023/05/11 12:10:11;;;;;;;2.80;2.57;;;21.00;64.10;;;;;;5052316;28;20226;-80
2023/05/11 12:12:38;;;;;;;2.80;2.60;;;21.00;64.20;;;;;;5053396;28;20198;-77
2023/05/11 12:15:07;;;;;;;3.20;2.67;;;21.10;64.30;;;;;;5053633;28;20210;-77
2023/05/11 12:17:38;;;;;;;2.90;2.70;;;21.10;63.80;;;;;;5059334;28;20199;-75
2023/05/11 12:20:14;;;;;;;3.57;2.80;;;21.20;63.90;;;;;;5074695;28;20285;-77
2023/05/11 12:22:43;;;;;;;3.30;2.63;;;21.20;62.80;;;;;;5034929;28;20234;-74
2023/05/11 12:25:11;;;;;;;2.50;2.30;;;21.30;63.20;;;;;;5052296;28;20202;-73
2023/05/11 12:27:47;;;;;;;3.00;2.60;;;21.30;63.50;;;;;;5052939;28;20206;-72
2023/05/11 12:30:20;;;;;;;3.27;2.87;;;21.40;62.80;;;;;;5051314;28;20216;-74
2023/05/11 12:32:47;;;;;;;2.80;2.60;;;21.50;62.60;;;;;;5052562;28;20206;-73
2023/05/11 12:35:23;;;;;;;2.90;2.70;;;21.50;62.40;;;;;;5051777;28;20228;-75
2023/05/11 12:37:51;;;;;;;2.77;2.57;;;21.50;62.90;;;;;;5033793;28;20261;-76
2023/05/11 12:40:18;;;;;;;3.30;3.00;;;21.60;63.00;;;;;;5051987;28;20320;-76
2023/05/11 12:42:51;;;;;;;2.70;2.50;;;21.70;62.40;;;;;;5053340;28;20202;-77
2023/05/11 12:45:19;;;;;;;2.60;2.40;;;21.70;61.10;;;;;;5053268;28;20671;-77
2023/05/11 12:47:47;;;;;;;4.27;2.87;;;21.80;61.30;;;;;;5052968;28;20244;-78
2023/05/11 12:50:16;;;;;;;3.57;2.60;;;21.80;61.60;;;;;;5053713;28;20218;-79
2023/05/11 12:52:42;;;;;;;2.67;2.43;;;21.90;61.00;;;;;;5052818;28;20198;-79
2023/05/11 12:55:10;;;;;;;3.17;2.87;;;21.90;60.80;;;;;;5053002;28;20210;-79
2023/05/11 12:57:39;;;;;;;3.53;2.80;;;21.90;60.70;;;;;;5053454;28;20608;-79
2023/05/11 13:00:08;;;;;;;2.87;2.60;;;21.90;60.60;;;;;;5053135;28;20206;-78